Alamo, California
Current Conditions -  °F | °C
As of 10:53 PM on Monday 20 Oct 2014 (Local Time) from KCCR Reporting Station
Clear Clear  
Wind Chill: 58°   Ceiling: Unl
Heat Index: 58°   Visibility: 10mi
Dew Point: 51°   Wind: 5mph
Humidity: 78%   Direction: 180°S
Pressure: 30.05"   Gusts: NA
Location:  37.85°N, 122.03°W
Report Text: KCCR 210553Z 18004KT 10SM CLR 14/11 A3005 RMK AO2 SLP163 T01440106 10200 20144 53018
Loading
Personal Weather Stations






























Interactive Weather Map
Tropical Storm Tracking
New forecast layout! Learn more

10-Day Weather Forecast

Advertisements
Track Severe Weather on mobile